Time,TemperatureF,DewpointF,PressureIn,WindDirection,WindDirectionDegrees,WindSpeedMPH,WindSpeedGustMPH,Humidity,HourlyPrecipIn,Conditions,Clouds,dailyrainin,SoftwareType,DateUTC
2013-03-02 00:15:00,32.4,27.0,29.74,North,349,0.0,8.0,80,0.00,,,0.00,weatherlink.com 1.10,2013-03-02 05:15:00,
2013-03-02 00:31:00,32.4,27.0,29.74,WNW,293,2.0,7.0,80,0.00,,,0.00,weatherlink.com 1.10,2013-03-02 05:31:00,
2013-03-02 00:47:00,32.3,26.0,29.74,NW,306,2.0,9.0,78,0.00,,,0.00,weatherlink.com 1.10,2013-03-02 05:47:00,
2013-03-02 01:03:00,32.2,26.0,29.74,NW,309,4.0,8.0,79,0.00,,,0.00,weatherlink.com 1.10,2013-03-02 06:03:00,
2013-03-02 01:18:00,32.1,26.0,29.73,NNW,339,3.0,7.0,78,0.00,,,0.00,weatherlink.com 1.10,2013-03-02 06:18:00,
2013-03-02 01:34:00,32.0,26.0,29.73,NW,326,3.0,8.0,79,0.00,,,0.00,weatherlink.com 1.10,2013-03-02 06:34:00,
2013-03-02 01:50:00,32.0,26.0,29.73,West,276,3.0,8.0,79,0.00,,,0.00,weatherlink.com 1.10,2013-03-02 06:50:00,
2013-03-02 02:06:00,31.8,26.0,29.74,NNW,335,3.0,7.0,78,0.00,,,0.00,weatherlink.com 1.10,2013-03-02 07:06:00,
2013-03-02 02:24:00,31.6,26.0,29.74,North,352,2.0,6.0,79,0.00,,,0.00,weatherlink.com 1.10,2013-03-02 07:24:00,
2013-03-02 02:38:00,31.3,26.0,29.74,NW,317,1.0,9.0,81,0.00,,,0.00,weatherlink.com 1.10,2013-03-02 07:38:00,
2013-03-02 02:53:00,31.0,26.0,29.74,NW,323,3.0,7.0,82,0.00,,,0.00,weatherlink.com 1.10,2013-03-02 07:53:00,
2013-03-02 03:09:00,30.8,26.0,29.74,NNW,334,3.0,5.0,82,0.00,,,0.00,weatherlink.com 1.10,2013-03-02 08:09:00,
2013-03-02 03:25:00,30.7,26.0,29.73,WNW,290,0.0,8.0,82,0.00,,,0.00,weatherlink.com 1.10,2013-03-02 08:25:00,
2013-03-02 03:41:00,30.6,26.0,29.74,NNW,333,0.0,6.0,82,0.00,,,0.00,weatherlink.com 1.10,2013-03-02 08:41:00,
2013-03-02 03:56:00,30.5,26.0,29.73,North,354,0.0,3.0,83,0.00,,,0.00,weatherlink.com 1.10,2013-03-02 08:56:00,
2013-03-02 04:14:00,30.6,26.0,29.73,WNW,302,1.0,6.0,82,0.00,,,0.00,weatherlink.com 1.10,2013-03-02 09:14:00,
2013-03-02 04:28:00,30.6,26.0,29.73,NNW,338,2.0,5.0,82,0.00,,,0.00,weatherlink.com 1.10,2013-03-02 09:28:00,
2013-03-02 04:44:00,30.5,25.0,29.73,NNW,348,5.0,8.0,81,0.00,,,0.00,weatherlink.com 1.10,2013-03-02 09:44:00,
2013-03-02 05:00:00,30.5,25.0,29.73,North,356,2.0,6.0,81,0.00,,,0.00,weatherlink.com 1.10,2013-03-02 10:00:00,
2013-03-02 05:16:00,30.4,25.0,29.73,WNW,296,3.0,5.0,81,0.00,,,0.00,weatherlink.com 1.10,2013-03-02 10:16:00,
2013-03-02 05:31:00,30.2,25.0,29.73,NNW,340,4.0,7.0,81,0.00,,,0.00,weatherlink.com 1.10,2013-03-02 10:31:00,
2013-03-02 05:47:00,30.1,25.0,29.73,NNW,334,2.0,6.0,81,0.00,,,0.00,weatherlink.com 1.10,2013-03-02 10:47:00,
2013-03-02 06:03:00,29.9,24.0,29.73,NW,304,2.0,5.0,80,0.00,,,0.00,weatherlink.com 1.10,2013-03-02 11:03:00,
2013-03-02 06:19:00,29.7,24.0,29.73,NNW,336,6.0,9.0,80,0.00,,,0.00,weatherlink.com 1.10,2013-03-02 11:19:00,
2013-03-02 06:35:00,29.7,24.0,29.73,WNW,298,4.0,7.0,80,0.00,,,0.00,weatherlink.com 1.10,2013-03-02 11:35:00,
2013-03-02 06:50:00,29.7,24.0,29.74,North,356,2.0,8.0,79,0.00,,,0.00,weatherlink.com 1.10,2013-03-02 11:50:00,
2013-03-02 07:06:00,29.7,24.0,29.74,NW,323,0.0,8.0,79,0.00,,,0.00,weatherlink.com 1.10,2013-03-02 12:06:00,
2013-03-02 07:22:00,29.7,24.0,29.75,NNW,328,3.0,6.0,78,0.00,,,0.00,weatherlink.com 1.10,2013-03-02 12:22:00,
2013-03-02 07:38:00,29.7,24.0,29.75,NE,56,3.0,10.0,78,0.00,,,0.00,weatherlink.com 1.10,2013-03-02 12:38:00,
2013-03-02 07:53:00,29.9,24.0,29.75,North,358,6.0,9.0,77,0.00,,,0.00,weatherlink.com 1.10,2013-03-02 12:53:00,
2013-03-02 08:10:00,30.0,23.0,29.75,NNW,345,5.0,9.0,76,0.00,,,0.00,weatherlink.com 1.10,2013-03-02 13:10:00,
2013-03-02 08:25:00,30.2,23.0,29.75,West,278,2.0,8.0,75,0.00,,,0.00,weatherlink.com 1.10,2013-03-02 13:25:00,
2013-03-02 08:41:00,30.6,24.0,29.75,NE,53,9.0,10.0,75,0.00,,,0.00,weatherlink.com 1.10,2013-03-02 13:41:00,
2013-03-02 08:57:00,30.8,24.0,29.75,WNW,283,5.0,9.0,75,0.00,,,0.00,weatherlink.com 1.10,2013-03-02 13:57:00,
2013-03-02 09:12:00,31.0,24.0,29.75,NNW,328,1.0,12.0,74,0.00,,,0.00,weatherlink.com 1.10,2013-03-02 14:12:00,
2013-03-02 09:28:00,31.1,24.0,29.75,NW,322,4.0,12.0,75,0.00,,,0.00,weatherlink.com 1.10,2013-03-02 14:28:00,
2013-03-02 09:44:00,31.1,24.0,29.75,NNW,347,5.0,9.0,75,0.00,,,0.00,weatherlink.com 1.10,2013-03-02 14:44:00,
2013-03-02 10:00:00,31.2,24.0,29.75,NNW,328,4.0,13.0,75,0.00,,,0.00,weatherlink.com 1.10,2013-03-02 15:00:00,
2013-03-02 10:16:00,31.7,25.0,29.74,WNW,294,3.0,9.0,75,0.00,,,0.00,weatherlink.com 1.10,2013-03-02 15:16:00,
2013-03-02 10:31:00,32.1,25.0,29.74,NW,309,5.0,11.0,75,0.00,,,0.00,weatherlink.com 1.10,2013-03-02 15:31:00,
2013-03-02 10:47:00,32.6,25.0,29.74,West,276,3.0,8.0,73,0.00,,,0.00,weatherlink.com 1.10,2013-03-02 15:47:00,
2013-03-02 11:03:00,32.9,25.0,29.74,WNW,300,4.0,9.0,72,0.00,,,0.00,weatherlink.com 1.10,2013-03-02 16:03:00,
2013-03-02 11:19:00,33.2,25.0,29.73,NW,304,7.0,12.0,71,0.00,,,0.00,weatherlink.com 1.10,2013-03-02 16:19:00,
2013-03-02 11:34:00,33.6,26.0,29.73,NW,321,2.0,9.0,72,0.00,,,0.00,weatherlink.com 1.10,2013-03-02 16:34:00,
2013-03-02 11:50:00,34.3,25.0,29.72,NNW,332,4.0,11.0,69,0.00,,,0.00,weatherlink.com 1.10,2013-03-02 16:50:00,
2013-03-02 12:06:00,34.6,25.0,29.72,NNW,343,5.0,11.0,68,0.00,,,0.00,weatherlink.com 1.10,2013-03-02 17:06:00,
2013-03-02 12:22:00,34.9,25.0,29.71,NNW,333,5.0,12.0,68,0.00,,,0.00,weatherlink.com 1.10,2013-03-02 17:22:00,
2013-03-02 12:38:00,35.2,25.0,29.71,WSW,256,1.0,9.0,66,0.00,,,0.00,weatherlink.com 1.10,2013-03-02 17:38:00,
2013-03-02 12:54:00,35.6,25.0,29.70,North,5,4.0,9.0,65,0.00,,,0.00,weatherlink.com 1.10,2013-03-02 17:54:00,
2013-03-02 13:10:00,35.5,25.0,29.70,NNW,342,3.0,13.0,66,0.00,,,0.00,weatherlink.com 1.10,2013-03-02 18:10:00,
2013-03-02 13:25:00,35.5,25.0,29.69,WNW,298,5.0,11.0,64,0.01,,,0.01,weatherlink.com 1.10,2013-03-02 18:25:00,
2013-03-02 13:41:00,35.6,25.0,29.69,NNW,337,4.0,12.0,64,0.02,,,0.02,weatherlink.com 1.10,2013-03-02 18:41:00,
2013-03-02 13:57:00,35.7,25.0,29.69,NW,317,2.0,9.0,65,0.02,,,0.02,weatherlink.com 1.10,2013-03-02 18:57:00,
2013-03-02 14:13:00,35.6,25.0,29.69,NW,311,3.0,8.0,65,0.01,,,0.02,weatherlink.com 1.10,2013-03-02 19:13:00,
2013-03-02 14:29:00,35.7,25.0,29.68,NNW,334,3.0,9.0,65,0.01,,,0.02,weatherlink.com 1.10,2013-03-02 19:29:00,
2013-03-02 14:44:00,35.3,25.0,29.69,WNW,302,5.0,10.0,65,0.01,,,0.03,weatherlink.com 1.10,2013-03-02 19:44:00,
2013-03-02 15:00:00,35.1,25.0,29.69,NW,319,0.0,14.0,66,0.01,,,0.03,weatherlink.com 1.10,2013-03-02 20:00:00,
2013-03-02 15:16:00,34.7,24.0,29.69,WNW,283,4.0,10.0,65,0.01,,,0.03,weatherlink.com 1.10,2013-03-02 20:16:00,
2013-03-02 15:32:00,34.3,24.0,29.69,NNW,340,2.0,8.0,67,0.01,,,0.03,weatherlink.com 1.10,2013-03-02 20:32:00,
2013-03-02 15:47:00,33.8,24.0,29.69,NW,305,1.0,13.0,68,0.00,,,0.03,weatherlink.com 1.10,2013-03-02 20:47:00,
2013-03-02 16:03:00,33.3,24.0,29.69,NW,316,3.0,11.0,68,0.00,,,0.03,weatherlink.com 1.10,2013-03-02 21:03:00,
2013-03-02 16:19:00,33.1,24.0,29.70,NW,323,1.0,9.0,68,0.00,,,0.03,weatherlink.com 1.10,2013-03-02 21:19:00,
2013-03-02 16:35:00,32.8,24.0,29.70,NNW,340,4.0,11.0,69,0.00,,,0.03,weatherlink.com 1.10,2013-03-02 21:35:00,
2013-03-02 16:51:00,32.5,24.0,29.70,WNW,303,2.0,13.0,70,0.00,,,0.03,weatherlink.com 1.10,2013-03-02 21:51:00,
2013-03-02 17:06:00,32.4,24.0,29.71,NNW,345,0.0,8.0,70,0.00,,,0.03,weatherlink.com 1.10,2013-03-02 22:06:00,
2013-03-02 17:22:00,31.7,25.0,29.71,North,8,4.0,11.0,75,0.00,,,0.03,weatherlink.com 1.10,2013-03-02 22:22:00,
2013-03-02 17:38:00,30.8,25.0,29.72,North,353,1.0,7.0,79,0.00,,,0.03,weatherlink.com 1.10,2013-03-02 22:38:00,
2013-03-02 17:54:00,30.7,25.0,29.72,NNW,337,1.0,5.0,80,0.00,,,0.03,weatherlink.com 1.10,2013-03-02 22:54:00,
2013-03-02 18:10:00,30.6,25.0,29.73,WNW,287,2.0,6.0,79,0.00,,,0.03,weatherlink.com 1.10,2013-03-02 23:10:00,
2013-03-02 18:25:00,30.2,24.0,29.73,NNW,341,1.0,4.0,78,0.00,,,0.03,weatherlink.com 1.10,2013-03-02 23:25:00,
2013-03-02 18:41:00,29.9,24.0,29.73,North,1,4.0,9.0,77,0.00,,,0.03,weatherlink.com 1.10,2013-03-02 23:41:00,
2013-03-02 18:57:00,29.4,23.0,29.73,NNW,328,2.0,6.0,78,0.00,,,0.03,weatherlink.com 1.10,2013-03-02 23:57:00,
2013-03-02 19:13:00,29.1,23.0,29.74,West,262,4.0,7.0,78,0.00,,,0.03,weatherlink.com 1.10,2013-03-03 00:13:00,
2013-03-02 19:28:00,29.0,23.0,29.74,NNW,343,0.0,4.0,78,0.00,,,0.03,weatherlink.com 1.10,2013-03-03 00:28:00,
2013-03-02 19:44:00,28.8,23.0,29.74,NW,313,2.0,7.0,79,0.00,,,0.03,weatherlink.com 1.10,2013-03-03 00:44:00,
2013-03-02 20:00:00,28.5,23.0,29.74,NNW,340,4.0,9.0,80,0.00,,,0.03,weatherlink.com 1.10,2013-03-03 01:00:00,
2013-03-02 20:16:00,28.2,23.0,29.74,NNW,328,3.0,8.0,80,0.00,,,0.03,weatherlink.com 1.10,2013-03-03 01:16:00,
2013-03-02 20:32:00,28.1,23.0,29.75,WNW,301,3.0,9.0,81,0.00,,,0.03,weatherlink.com 1.10,2013-03-03 01:32:00,
2013-03-02 20:47:00,27.8,22.0,29.75,NW,323,5.0,7.0,80,0.00,,,0.03,weatherlink.com 1.10,2013-03-03 01:47:00,
2013-03-02 21:03:00,27.7,23.0,29.75,NNW,328,5.0,7.0,81,0.00,,,0.03,weatherlink.com 1.10,2013-03-03 02:03:00,
2013-03-02 21:19:00,27.6,23.0,29.75,North,352,4.0,7.0,81,0.00,,,0.03,weatherlink.com 1.10,2013-03-03 02:19:00,
2013-03-02 21:35:00,27.4,22.0,29.75,NW,311,2.0,5.0,81,0.00,,,0.03,weatherlink.com 1.10,2013-03-03 02:35:00,
2013-03-02 21:50:00,27.2,22.0,29.75,NNW,329,1.0,8.0,81,0.00,,,0.03,weatherlink.com 1.10,2013-03-03 02:50:00,
2013-03-02 22:07:00,26.9,22.0,29.74,North,350,4.0,10.0,81,0.00,,,0.03,weatherlink.com 1.10,2013-03-03 03:07:00,
2013-03-02 22:22:00,26.8,22.0,29.74,WNW,287,4.0,7.0,82,0.00,,,0.03,weatherlink.com 1.10,2013-03-03 03:22:00,
2013-03-02 22:38:00,26.7,22.0,29.73,NW,308,4.0,8.0,82,0.00,,,0.03,weatherlink.com 1.10,2013-03-03 03:38:00,
2013-03-02 22:54:00,26.6,22.0,29.73,NW,326,2.0,8.0,82,0.00,,,0.03,weatherlink.com 1.10,2013-03-03 03:54:00,
2013-03-02 23:10:00,26.5,22.0,29.73,NNW,340,4.0,6.0,82,0.00,,,0.03,weatherlink.com 1.10,2013-03-03 04:10:00,
2013-03-02 23:25:00,26.5,22.0,29.73,NW,326,2.0,6.0,82,0.00,,,0.03,weatherlink.com 1.10,2013-03-03 04:25:00,
2013-03-02 23:41:00,26.5,21.0,29.72,North,350,2.0,6.0,81,0.00,,,0.03,weatherlink.com 1.10,2013-03-03 04:41:00,
2013-03-02 23:57:00,26.4,21.0,29.72,WNW,290,1.0,5.0,81,0.00,,,0.03,weatherlink.com 1.10,2013-03-03 04:57:00,